createdAt,value
2017-09-24T00:01:04.185Z,0
2017-09-24T00:02:13.372Z,0
2017-09-24T00:03:21.916Z,0
2017-09-24T00:04:30.782Z,0
2017-09-24T00:05:39.325Z,0
2017-09-24T00:06:48.227Z,0
2017-09-24T00:07:57.095Z,0
2017-09-24T00:09:05.960Z,0
2017-09-24T00:10:14.497Z,0
2017-09-24T00:11:23.679Z,0
2017-09-24T00:12:32.864Z,0
2017-09-24T00:13:41.411Z,0
2017-09-24T00:14:49.950Z,0
2017-09-24T00:15:58.496Z,0
2017-09-24T00:17:07.040Z,0
2017-09-24T00:18:15.902Z,0
2017-09-24T00:19:24.446Z,0
2017-09-24T00:20:32.987Z,0
2017-09-24T00:21:42.494Z,0
2017-09-24T00:22:51.036Z,0
2017-09-24T00:24:00.223Z,0
2017-09-24T00:25:09.412Z,0
2017-09-24T00:26:18.276Z,0
2017-09-24T00:27:27.143Z,0
2017-09-24T00:28:36.331Z,0
2017-09-24T00:29:44.881Z,0
2017-09-24T00:30:53.424Z,0
2017-09-24T00:32:01.965Z,0
2017-09-24T00:33:11.152Z,0
2017-09-24T00:34:20.023Z,0
2017-09-24T00:35:28.566Z,0
2017-09-24T00:36:37.430Z,0
2017-09-24T00:37:45.975Z,0
2017-09-24T00:38:54.839Z,0
2017-09-24T00:40:03.706Z,0
2017-09-24T00:41:12.896Z,0
2017-09-24T00:42:22.084Z,0
2017-09-24T00:43:30.625Z,0
2017-09-24T00:44:39.168Z,0
2017-09-24T00:45:48.036Z,0
2017-09-24T00:46:56.898Z,0
2017-09-24T00:48:05.438Z,0
2017-09-24T00:49:13.983Z,0
2017-09-24T00:50:23.491Z,0
2017-09-24T00:51:32.032Z,0
2017-09-24T00:52:40.895Z,0
2017-09-24T00:53:49.762Z,0
2017-09-24T00:54:58.630Z,0
2017-09-24T00:56:07.497Z,0
2017-09-24T00:57:16.362Z,0
2017-09-24T00:58:24.903Z,0
2017-09-24T00:59:33.772Z,0
2017-09-24T01:00:42.636Z,0
2017-09-24T01:01:51.830Z,0
2017-09-24T01:03:01.015Z,0
2017-09-24T01:04:10.522Z,0
2017-09-24T01:05:19.386Z,0
2017-09-24T01:06:28.248Z,0
2017-09-24T01:07:37.438Z,0
2017-09-24T01:08:46.631Z,0
2017-09-24T01:09:55.701Z,0
2017-09-24T01:11:04.895Z,0
2017-09-24T01:12:13.760Z,0
2017-09-24T01:13:22.301Z,0
2017-09-24T01:14:30.846Z,0
2017-09-24T01:15:39.961Z,0
2017-09-24T01:16:49.174Z,0
2017-09-24T01:17:58.041Z,0
2017-09-24T01:19:07.233Z,0
2017-09-24T01:20:15.773Z,0
2017-09-24T01:21:24.638Z,0
2017-09-24T01:22:33.504Z,0
2017-09-24T01:23:42.690Z,0
2017-09-24T01:24:51.231Z,0
2017-09-24T01:26:00.099Z,0
2017-09-24T01:27:08.963Z,0
2017-09-24T01:28:17.823Z,0
2017-09-24T01:29:26.364Z,0
2017-09-24T01:30:34.903Z,0
2017-09-24T01:31:43.445Z,0
2017-09-24T01:32:52.310Z,0
2017-09-24T01:34:01.501Z,0
2017-09-24T01:35:10.042Z,0
2017-09-24T01:36:18.583Z,0
2017-09-24T01:37:27.449Z,0
2017-09-24T01:38:36.313Z,0
2017-09-24T01:39:45.216Z,0
2017-09-24T01:40:53.760Z,0
2017-09-24T01:42:02.300Z,0
2017-09-24T01:43:11.162Z,0
2017-09-24T01:44:20.023Z,0
2017-09-24T01:45:28.884Z,0
2017-09-24T01:46:37.422Z,0
2017-09-24T01:47:45.970Z,0
2017-09-24T01:48:54.509Z,0
2017-09-24T01:50:03.698Z,0
2017-09-24T01:51:12.563Z,0
2017-09-24T01:52:21.428Z,0
2017-09-24T01:53:30.614Z,0
2017-09-24T01:54:39.158Z,0
2017-09-24T01:55:48.022Z,0
2017-09-24T01:56:56.565Z,0
2017-09-24T01:58:05.753Z,0
2017-09-24T01:59:14.292Z,0
2017-09-24T02:00:22.832Z,0
2017-09-24T02:01:31.719Z,0
2017-09-24T02:02:40.263Z,0
2017-09-24T02:03:48.803Z,0
2017-09-24T02:04:57.344Z,0
2017-09-24T02:06:05.883Z,0
2017-09-24T02:07:15.070Z,0
2017-09-24T02:08:23.610Z,0
2017-09-24T02:09:32.473Z,0
2017-09-24T02:10:41.336Z,0
2017-09-24T02:11:50.200Z,0
2017-09-24T02:12:59.082Z,0
2017-09-24T02:14:07.928Z,0
2017-09-24T02:15:16.794Z,0
2017-09-24T02:16:25.331Z,0
2017-09-24T02:17:33.874Z,0
2017-09-24T02:18:43.059Z,0
2017-09-24T02:19:51.925Z,0
2017-09-24T02:21:00.469Z,0
2017-09-24T02:22:09.335Z,0
2017-09-24T02:23:17.878Z,0
2017-09-24T02:24:26.747Z,0
2017-09-24T02:25:35.611Z,0
2017-09-24T02:26:44.660Z,0
2017-09-24T02:27:53.198Z,0
2017-09-24T02:29:02.064Z,0
2017-09-24T02:30:10.926Z,0
2017-09-24T02:31:20.364Z,0
2017-09-24T02:32:28.905Z,0
2017-09-24T02:33:37.446Z,0
2017-09-24T02:34:45.988Z,0
2017-09-24T02:35:54.854Z,0
2017-09-24T02:37:03.720Z,0
2017-09-24T02:38:12.589Z,0
2017-09-24T02:39:21.133Z,0
2017-09-24T02:40:30.334Z,0
2017-09-24T02:41:38.878Z,0
2017-09-24T02:42:47.420Z,0
2017-09-24T02:43:55.961Z,0
2017-09-24T02:45:04.829Z,0
2017-09-24T02:46:13.698Z,0
2017-09-24T02:47:22.242Z,0
2017-09-24T02:48:30.788Z,0
2017-09-24T02:49:39.977Z,0
2017-09-24T02:50:48.870Z,0
2017-09-24T02:51:57.735Z,0
2017-09-24T02:53:06.595Z,0
2017-09-24T02:54:15.134Z,0
2017-09-24T02:55:23.676Z,0
2017-09-24T02:56:32.217Z,0
2017-09-24T02:57:41.081Z,0
2017-09-24T02:58:49.650Z,0
2017-09-24T02:59:58.513Z,0
2017-09-24T03:01:07.057Z,0
2017-09-24T03:02:15.608Z,0
2017-09-24T03:03:24.142Z,0
2017-09-24T03:04:32.685Z,0
2017-09-24T03:05:41.224Z,0
2017-09-24T03:06:50.090Z,0
2017-09-24T03:07:59.273Z,0
2017-09-24T03:09:07.815Z,0
2017-09-24T03:10:16.674Z,0
2017-09-24T03:11:25.220Z,0
2017-09-24T03:12:33.761Z,0
2017-09-24T03:13:42.299Z,0
2017-09-24T03:14:50.839Z,0
2017-09-24T03:15:59.380Z,0
2017-09-24T03:17:08.245Z,0
2017-09-24T03:18:16.784Z,0
2017-09-24T03:19:25.650Z,0
2017-09-24T03:20:34.190Z,0
2017-09-24T03:21:43.052Z,0
2017-09-24T03:22:51.596Z,0
2017-09-24T03:24:00.865Z,0
2017-09-24T03:25:09.728Z,0
2017-09-24T03:26:18.915Z,0
2017-09-24T03:27:27.781Z,0
2017-09-24T03:28:36.378Z,0
2017-09-24T03:29:45.242Z,0
2017-09-24T03:30:53.791Z,0
2017-09-24T03:32:02.331Z,0
2017-09-24T03:33:10.871Z,0
2017-09-24T03:34:19.413Z,0
2017-09-24T03:35:27.954Z,0
2017-09-24T03:36:36.820Z,0
2017-09-24T03:37:45.683Z,0
2017-09-24T03:38:54.557Z,0
2017-09-24T03:40:03.426Z,0
2017-09-24T03:41:12.287Z,0
2017-09-24T03:42:21.798Z,0
2017-09-24T03:43:30.657Z,0
2017-09-24T03:44:39.198Z,0
2017-09-24T03:45:47.737Z,0
2017-09-24T03:46:56.282Z,0
2017-09-24T03:48:04.824Z,0
2017-09-24T03:49:13.363Z,0
2017-09-24T03:50:22.221Z,0
2017-09-24T03:51:31.402Z,0
2017-09-24T03:52:39.943Z,0
2017-09-24T03:53:48.485Z,0
2017-09-24T03:54:57.022Z,0
2017-09-24T03:56:05.564Z,0
2017-09-24T03:57:14.428Z,0
2017-09-24T03:58:23.296Z,0
2017-09-24T03:59:31.834Z,0
2017-09-24T04:00:40.697Z,0
2017-09-24T04:01:49.561Z,0
2017-09-24T04:02:58.435Z,0
2017-09-24T04:04:07.301Z,0
2017-09-24T04:05:16.163Z,0
2017-09-24T04:06:24.702Z,0
2017-09-24T04:07:33.565Z,0
2017-09-24T04:08:42.424Z,0
2017-09-24T04:09:50.964Z,0
2017-09-24T04:10:59.503Z,0
2017-09-24T04:12:08.367Z,0
2017-09-24T04:13:16.905Z,0
2017-09-24T04:14:25.766Z,0
2017-09-24T04:15:34.960Z,0
2017-09-24T04:16:43.831Z,0
2017-09-24T04:17:52.384Z,0
2017-09-24T04:19:00.923Z,0
2017-09-24T04:20:09.788Z,0
2017-09-24T04:21:18.330Z,0
2017-09-24T04:22:26.868Z,0
2017-09-24T04:23:35.409Z,0
2017-09-24T04:24:44.270Z,0
2017-09-24T04:25:52.806Z,0
2017-09-24T04:27:01.347Z,0
2017-09-24T04:28:10.211Z,0
2017-09-24T04:29:18.753Z,0
2017-09-24T04:30:27.295Z,0
2017-09-24T04:31:35.836Z,0
2017-09-24T04:32:44.377Z,0
2017-09-24T04:33:53.238Z,0
2017-09-24T04:35:02.101Z,0
2017-09-24T04:36:10.966Z,0
2017-09-24T04:37:19.829Z,0
2017-09-24T04:38:28.371Z,0
2017-09-24T04:39:36.911Z,0
2017-09-24T04:40:45.771Z,0
2017-09-24T04:41:54.954Z,0
2017-09-24T04:43:03.816Z,0
2017-09-24T04:44:12.359Z,0
2017-09-24T04:45:20.901Z,0
2017-09-24T04:46:29.766Z,0
2017-09-24T04:47:39.276Z,0
2017-09-24T04:48:48.139Z,0
2017-09-24T04:49:57.324Z,0
2017-09-24T04:51:05.865Z,0
2017-09-24T04:52:14.407Z,0
2017-09-24T04:53:23.272Z,0
2017-09-24T04:54:32.135Z,4
2017-09-24T04:55:41.323Z,4
2017-09-24T04:56:50.192Z,0
2017-09-24T04:57:59.061Z,4
2017-09-24T04:59:07.602Z,4
2017-09-24T05:00:16.145Z,4
2017-09-24T05:01:25.009Z,4
2017-09-24T05:02:33.872Z,8
2017-09-24T05:03:42.415Z,8
2017-09-24T05:04:50.956Z,12
2017-09-24T05:06:00.198Z,16
2017-09-24T05:07:09.759Z,16
2017-09-24T05:08:18.302Z,20
2017-09-24T05:09:26.851Z,28
2017-09-24T05:10:36.036Z,32
2017-09-24T05:11:45.223Z,36
2017-09-24T05:12:53.765Z,44
2017-09-24T05:14:02.304Z,52
2017-09-24T05:15:11.493Z,64
2017-09-24T05:16:20.033Z,72
2017-09-24T05:17:28.896Z,88
2017-09-24T05:18:37.437Z,96
2017-09-24T05:19:45.978Z,112
2017-09-24T05:20:54.519Z,124
2017-09-24T05:22:03.379Z,144
2017-09-24T05:23:12.570Z,160
2017-09-24T05:24:21.440Z,180
2017-09-24T05:25:30.305Z,196
2017-09-24T05:26:39.172Z,220
2017-09-24T05:27:48.047Z,240
2017-09-24T05:28:57.241Z,264
2017-09-24T05:30:05.782Z,284
2017-09-24T05:31:14.645Z,312
2017-09-24T05:32:23.188Z,336
2017-09-24T05:33:31.730Z,360
2017-09-24T05:34:40.269Z,388
2017-09-24T05:35:48.812Z,420
2017-09-24T05:36:57.354Z,444
2017-09-24T05:38:05.893Z,472
2017-09-24T05:39:14.432Z,500
2017-09-24T05:40:23.615Z,528
2017-09-24T05:41:32.151Z,552
2017-09-24T05:42:40.690Z,576
2017-09-24T05:43:49.878Z,596
2017-09-24T05:44:58.418Z,620
2017-09-24T05:46:07.282Z,640
2017-09-24T05:47:15.824Z,664
2017-09-24T05:48:24.689Z,688
2017-09-24T05:49:33.236Z,716
2017-09-24T05:50:42.422Z,740
2017-09-24T05:51:51.212Z,776
2017-09-24T05:53:00.074Z,816
2017-09-24T05:54:09.259Z,856
2017-09-24T05:55:18.450Z,884
2017-09-24T05:56:27.640Z,908
2017-09-24T05:57:36.184Z,932
2017-09-24T05:58:45.693Z,956
2017-09-24T05:59:54.238Z,984
2017-09-24T06:01:03.102Z,1008
2017-09-24T06:02:11.644Z,1032
2017-09-24T06:03:20.507Z,1056
2017-09-24T06:04:29.696Z,1080
2017-09-24T06:05:39.204Z,1108
2017-09-24T06:06:47.750Z,1132
2017-09-24T06:07:56.616Z,1156
2017-09-24T06:09:05.157Z,1180
2017-09-24T06:10:14.025Z,1204
2017-09-24T06:11:22.886Z,1236
2017-09-24T06:12:31.430Z,1264
2017-09-24T06:13:39.970Z,1288
2017-09-24T06:14:48.834Z,1312
2017-09-24T06:15:57.700Z,1340
2017-09-24T06:17:06.241Z,1368
2017-09-24T06:18:14.783Z,1396
2017-09-24T06:19:23.322Z,1432
2017-09-24T06:20:31.860Z,1468
2017-09-24T06:21:40.406Z,1508
2017-09-24T06:22:48.946Z,1548
2017-09-24T06:23:57.490Z,1596
2017-09-24T06:25:06.355Z,1648
2017-09-24T06:26:15.222Z,1716
2017-09-24T06:27:23.763Z,1760
2017-09-24T06:28:32.630Z,1776
2017-09-24T06:29:41.494Z,1796
2017-09-24T06:30:50.678Z,1844
2017-09-24T06:31:59.542Z,1888
2017-09-24T06:33:08.408Z,1960
2017-09-24T06:34:17.276Z,2044
2017-09-24T06:35:26.140Z,2084
2017-09-24T06:36:34.679Z,2092
2017-09-24T06:37:43.539Z,2088
2017-09-24T06:38:52.082Z,2108
2017-09-24T06:40:00.628Z,2140
2017-09-24T06:41:09.811Z,2180
2017-09-24T06:42:18.675Z,2232
2017-09-24T06:43:27.566Z,2280
2017-09-24T06:44:37.076Z,2308
2017-09-24T06:45:45.616Z,2292
2017-09-24T06:46:54.158Z,2272
2017-09-24T06:48:03.351Z,2272
2017-09-24T06:49:11.931Z,2296
2017-09-24T06:50:20.761Z,2328
2017-09-24T06:51:29.302Z,2340
2017-09-24T06:52:38.810Z,2292
2017-09-24T06:53:47.353Z,2268
2017-09-24T06:54:56.576Z,2276
2017-09-24T06:56:05.769Z,2296
2017-09-24T06:57:14.635Z,2312
2017-09-24T06:58:23.504Z,2348
2017-09-24T06:59:32.369Z,2392
2017-09-24T07:00:40.911Z,2436
2017-09-24T07:01:49.450Z,2472
2017-09-24T07:02:58.314Z,2492
2017-09-24T07:04:07.181Z,2484
2017-09-24T07:05:16.045Z,2472
2017-09-24T07:06:24.584Z,2492
2017-09-24T07:07:33.126Z,2540
2017-09-24T07:08:42.314Z,2612
2017-09-24T07:09:50.850Z,2700
2017-09-24T07:11:00.037Z,2796
2017-09-24T07:12:08.903Z,2908
2017-09-24T07:13:17.767Z,2992
2017-09-24T07:14:26.306Z,3036
2017-09-24T07:15:35.203Z,3036
2017-09-24T07:16:43.746Z,3028
2017-09-24T07:17:52.609Z,3044
2017-09-24T07:19:01.148Z,3140
2017-09-24T07:20:10.020Z,3280
2017-09-24T07:21:18.882Z,3372
2017-09-24T07:22:27.745Z,3512
2017-09-24T07:23:36.615Z,3628
2017-09-24T07:24:45.159Z,3712
2017-09-24T07:25:54.646Z,3732
2017-09-24T07:27:03.841Z,3768
2017-09-24T07:28:12.708Z,3820
2017-09-24T07:29:21.895Z,3880
2017-09-24T07:30:30.760Z,4124
2017-09-24T07:31:39.304Z,4344
2017-09-24T07:32:48.173Z,4508
2017-09-24T07:33:57.038Z,4640
2017-09-24T07:35:05.904Z,4728
2017-09-24T07:36:14.770Z,4712
2017-09-24T07:37:23.313Z,4672
2017-09-24T07:38:32.180Z,4632
2017-09-24T07:39:40.721Z,4488
2017-09-24T07:40:49.595Z,4440
2017-09-24T07:41:58.459Z,4640
2017-09-24T07:43:07.001Z,4712
2017-09-24T07:44:15.545Z,4656
2017-09-24T07:45:24.416Z,4592
2017-09-24T07:46:32.958Z,4608
2017-09-24T07:47:42.143Z,4580
2017-09-24T07:48:51.013Z,4528
2017-09-24T07:49:59.556Z,4496
2017-09-24T07:51:08.096Z,4648
2017-09-24T07:52:16.641Z,4680
2017-09-24T07:53:25.182Z,4688
2017-09-24T07:54:33.724Z,4696
2017-09-24T07:55:42.269Z,4708
2017-09-24T07:56:51.130Z,4712
2017-09-24T07:57:59.998Z,4708
2017-09-24T07:59:08.543Z,4712
2017-09-24T08:00:17.085Z,4752
2017-09-24T08:01:26.273Z,4768
2017-09-24T08:02:35.139Z,4772
2017-09-24T08:03:43.680Z,4800
2017-09-24T08:04:52.550Z,4800
2017-09-24T08:06:01.451Z,4796
2017-09-24T08:07:10.606Z,4776
2017-09-24T08:08:19.469Z,4776
2017-09-24T08:09:28.335Z,4756
2017-09-24T08:10:36.878Z,4772
2017-09-24T08:11:45.424Z,4788
2017-09-24T08:12:53.971Z,4796
2017-09-24T08:14:02.841Z,4788
2017-09-24T08:15:11.714Z,4800
2017-09-24T08:16:20.256Z,4812
2017-09-24T08:17:29.443Z,4816
2017-09-24T08:18:37.988Z,4824
2017-09-24T08:19:47.177Z,4844
2017-09-24T08:20:55.721Z,4872
2017-09-24T08:22:04.265Z,4896
2017-09-24T08:23:13.126Z,4884
2017-09-24T08:24:21.671Z,4896
2017-09-24T08:25:30.540Z,4900
2017-09-24T08:26:39.082Z,4900
2017-09-24T08:27:47.628Z,4888
2017-09-24T08:28:56.169Z,4880
2017-09-24T08:30:05.033Z,4892
2017-09-24T08:31:14.543Z,4904
2017-09-24T08:32:23.086Z,4908
2017-09-24T08:33:31.631Z,4916
2017-09-24T08:34:40.174Z,4924
2017-09-24T08:35:49.042Z,4944
2017-09-24T08:36:57.589Z,4960
2017-09-24T08:38:06.135Z,4980
2017-09-24T08:39:14.683Z,4996
2017-09-24T08:40:23.551Z,5000
2017-09-24T08:41:32.090Z,5024
2017-09-24T08:42:40.631Z,5020
2017-09-24T08:43:49.174Z,5004
2017-09-24T08:44:58.358Z,5012
2017-09-24T08:46:07.224Z,5012
2017-09-24T08:47:16.739Z,5016
2017-09-24T08:48:25.606Z,5012
2017-09-24T08:49:34.149Z,5008
2017-09-24T08:50:42.728Z,5016
2017-09-24T08:51:51.240Z,5016
2017-09-24T08:53:00.431Z,5028
2017-09-24T08:54:08.975Z,5028
2017-09-24T08:55:18.163Z,5068
2017-09-24T08:56:26.711Z,5108
2017-09-24T08:57:35.252Z,5196
2017-09-24T08:58:43.799Z,5336
2017-09-24T08:59:52.671Z,5484
2017-09-24T09:01:01.217Z,5648
2017-09-24T09:02:10.088Z,5776
2017-09-24T09:03:18.634Z,5868
2017-09-24T09:04:28.150Z,5928
2017-09-24T09:05:36.691Z,6024
2017-09-24T09:06:45.556Z,5936
2017-09-24T09:07:54.102Z,6164
2017-09-24T09:09:02.972Z,6204
2017-09-24T09:10:11.518Z,6312
2017-09-24T09:11:20.063Z,6428
2017-09-24T09:12:28.931Z,6524
2017-09-24T09:13:37.801Z,6536
2017-09-24T09:14:46.346Z,6464
2017-09-24T09:15:54.890Z,6392
2017-09-24T09:17:03.433Z,6216
2017-09-24T09:18:11.978Z,5724
2017-09-24T09:19:20.844Z,5524
2017-09-24T09:20:30.031Z,5420
2017-09-24T09:21:38.578Z,5332
2017-09-24T09:22:47.448Z,5272
2017-09-24T09:23:55.993Z,5236
2017-09-24T09:25:04.540Z,5400
2017-09-24T09:26:13.092Z,5248
2017-09-24T09:27:21.961Z,5208
2017-09-24T09:28:30.499Z,5352
2017-09-24T09:29:39.369Z,5208
2017-09-24T09:30:48.239Z,5064
2017-09-24T09:31:57.109Z,4904
2017-09-24T09:33:05.652Z,4704
2017-09-24T09:34:14.195Z,4716
2017-09-24T09:35:23.066Z,4776
2017-09-24T09:36:31.608Z,4900
2017-09-24T09:37:40.162Z,4744
2017-09-24T09:38:48.702Z,4664
2017-09-24T09:39:57.568Z,4584
2017-09-24T09:41:06.109Z,4656
2017-09-24T09:42:14.656Z,4656
2017-09-24T09:43:23.200Z,4528
2017-09-24T09:44:31.744Z,4396
2017-09-24T09:45:40.613Z,4216
2017-09-24T09:46:49.158Z,4216
2017-09-24T09:47:58.349Z,4396
2017-09-24T09:49:06.895Z,4492
2017-09-24T09:50:15.766Z,4620
2017-09-24T09:51:24.962Z,4848
2017-09-24T09:52:33.505Z,4828
2017-09-24T09:53:42.372Z,4820
2017-09-24T09:54:51.245Z,4808
2017-09-24T09:55:59.783Z,4800
2017-09-24T09:57:08.972Z,4796
2017-09-24T09:58:18.165Z,4792
2017-09-24T09:59:27.034Z,4796
2017-09-24T10:00:35.578Z,4792
2017-09-24T10:01:44.768Z,4780
2017-09-24T10:02:53.670Z,4752
2017-09-24T10:04:02.866Z,4744
2017-09-24T10:05:11.737Z,4740
2017-09-24T10:06:20.603Z,4736
2017-09-24T10:07:29.470Z,4740
2017-09-24T10:08:38.017Z,4740
2017-09-24T10:09:46.886Z,4720
2017-09-24T10:10:55.758Z,4712
2017-09-24T10:12:04.306Z,4712
2017-09-24T10:13:12.850Z,4712
2017-09-24T10:14:21.392Z,4712
2017-09-24T10:15:29.936Z,4688
2017-09-24T10:16:38.480Z,4672
2017-09-24T10:17:47.347Z,4656
2017-09-24T10:18:56.213Z,4648
2017-09-24T10:20:05.409Z,4652
2017-09-24T10:21:14.277Z,4660
2017-09-24T10:22:22.822Z,4680
2017-09-24T10:23:31.690Z,4676
2017-09-24T10:24:40.238Z,4652
2017-09-24T10:25:48.784Z,4644
2017-09-24T10:26:58.267Z,4648
2017-09-24T10:28:06.815Z,4664
2017-09-24T10:29:15.361Z,4676
2017-09-24T10:30:24.225Z,4684
2017-09-24T10:31:32.772Z,4676
2017-09-24T10:32:41.966Z,4692
2017-09-24T10:33:50.512Z,4692
2017-09-24T10:34:59.702Z,4708
2017-09-24T10:36:08.572Z,4732
2017-09-24T10:37:17.438Z,4712
2017-09-24T10:38:26.625Z,4684
2017-09-24T10:39:35.173Z,4636
2017-09-24T10:40:44.042Z,4656
2017-09-24T10:41:52.918Z,4652
2017-09-24T10:43:01.466Z,4616
2017-09-24T10:44:10.294Z,4568
2017-09-24T10:45:19.263Z,4456
2017-09-24T10:46:27.862Z,4452
2017-09-24T10:47:36.479Z,4500
2017-09-24T10:48:45.426Z,4544
2017-09-24T10:49:54.085Z,4560
2017-09-24T10:51:03.376Z,4580
2017-09-24T10:52:12.025Z,4608
2017-09-24T10:53:20.621Z,4620
2017-09-24T10:54:29.520Z,4612
2017-09-24T10:55:38.443Z,4612
2017-09-24T10:56:47.362Z,4624
2017-09-24T10:57:56.283Z,4620
2017-09-24T10:59:05.203Z,4704
2017-09-24T11:00:14.156Z,4828
2017-09-24T11:01:23.456Z,4684
2017-09-24T11:02:32.122Z,4652
2017-09-24T11:03:40.698Z,4488
2017-09-24T11:04:49.603Z,4572
2017-09-24T11:05:58.521Z,4592
2017-09-24T11:07:07.409Z,4564
2017-09-24T11:08:16.327Z,4552
2017-09-24T11:09:25.258Z,4536
2017-09-24T11:10:34.190Z,4556
2017-09-24T11:11:43.166Z,4468
2017-09-24T11:12:52.475Z,4352
2017-09-24T11:14:01.394Z,4388
2017-09-24T11:15:10.360Z,4364
2017-09-24T11:16:18.957Z,4384
2017-09-24T11:17:28.199Z,4420
2017-09-24T11:18:36.823Z,4444
2017-09-24T11:19:45.419Z,4512
2017-09-24T11:20:54.036Z,4568
2017-09-24T11:22:03.006Z,4584
2017-09-24T11:23:11.604Z,4560
2017-09-24T11:24:20.233Z,4612
2017-09-24T11:25:29.150Z,4580
2017-09-24T11:26:38.094Z,4564
2017-09-24T11:27:46.736Z,4568
2017-09-24T11:28:55.312Z,4660
2017-09-24T11:30:03.906Z,4692
2017-09-24T11:31:12.550Z,4708
2017-09-24T11:32:21.476Z,4644
2017-09-24T11:33:30.022Z,4652
2017-09-24T11:34:38.598Z,4676
2017-09-24T11:35:47.583Z,4832
2017-09-24T11:36:56.160Z,4872
2017-09-24T11:38:04.758Z,4808
2017-09-24T11:39:13.354Z,4828
2017-09-24T11:40:22.627Z,4840
2017-09-24T11:41:31.219Z,4884
2017-09-24T11:42:39.790Z,4948
2017-09-24T11:43:48.371Z,4968
2017-09-24T11:44:57.286Z,4864
2017-09-24T11:46:06.191Z,4872
2017-09-24T11:47:14.790Z,5004
2017-09-24T11:48:23.769Z,5128
2017-09-24T11:49:32.365Z,5224
2017-09-24T11:50:41.107Z,5084
2017-09-24T11:51:50.106Z,5008
2017-09-24T11:52:58.680Z,5024
2017-09-24T11:54:07.579Z,4996
2017-09-24T11:55:16.776Z,4992
2017-09-24T11:56:25.697Z,5052
2017-09-24T11:57:35.266Z,5116
2017-09-24T11:58:44.486Z,5136
2017-09-24T11:59:53.433Z,5232
2017-09-24T12:01:02.012Z,5508
2017-09-24T12:02:11.255Z,5684
2017-09-24T12:03:19.862Z,5332
2017-09-24T12:04:29.402Z,4948
2017-09-24T12:05:38.328Z,4852
2017-09-24T12:06:47.235Z,4824
2017-09-24T12:07:56.175Z,4888
2017-09-24T12:09:05.109Z,4888
2017-09-24T12:10:13.700Z,4844
2017-09-24T12:11:22.729Z,4892
2017-09-24T12:12:31.284Z,4764
2017-09-24T12:13:40.201Z,4164
2017-09-24T12:14:49.069Z,4220
2017-09-24T12:15:58.268Z,4236
2017-09-24T12:17:07.137Z,4448
2017-09-24T12:18:16.007Z,4764
2017-09-24T12:19:25.204Z,4720
2017-09-24T12:20:34.076Z,4716
2017-09-24T12:21:42.947Z,4704
2017-09-24T12:22:51.496Z,4716
2017-09-24T12:24:00.369Z,4732
2017-09-24T12:25:09.237Z,4696
2017-09-24T12:26:18.110Z,4784
2017-09-24T12:27:26.984Z,4680
2017-09-24T12:28:35.532Z,4584
2017-09-24T12:29:44.405Z,4560
2017-09-24T12:30:53.274Z,4568
2017-09-24T12:32:01.823Z,4616
2017-09-24T12:33:11.017Z,4796
2017-09-24T12:34:19.891Z,5124
2017-09-24T12:35:28.441Z,5532
2017-09-24T12:36:37.313Z,5704
2017-09-24T12:37:45.859Z,5556
2017-09-24T12:38:54.402Z,5160
2017-09-24T12:40:03.271Z,5012
2017-09-24T12:41:11.819Z,4988
2017-09-24T12:42:20.365Z,4952
2017-09-24T12:43:29.231Z,5008
2017-09-24T12:44:38.101Z,4980
2017-09-24T12:45:46.657Z,5064
2017-09-24T12:46:55.541Z,5380
2017-09-24T12:48:04.728Z,5628
2017-09-24T12:49:13.598Z,5656
2017-09-24T12:50:22.149Z,5416
2017-09-24T12:51:30.696Z,5220
2017-09-24T12:52:39.246Z,5428
2017-09-24T12:53:48.121Z,5368
2017-09-24T12:54:56.667Z,5612
2017-09-24T12:56:05.864Z,6028
2017-09-24T12:57:14.737Z,6008
2017-09-24T12:58:23.285Z,5660
2017-09-24T12:59:31.833Z,5096
2017-09-24T13:00:41.023Z,4804
2017-09-24T13:01:49.571Z,4652
2017-09-24T13:02:58.117Z,4572
2017-09-24T13:04:07.314Z,4544
2017-09-24T13:05:15.863Z,4564
2017-09-24T13:06:24.409Z,4560
2017-09-24T13:07:32.953Z,4492
2017-09-24T13:08:41.502Z,4280
2017-09-24T13:09:50.050Z,4228
2017-09-24T13:10:58.597Z,4232
2017-09-24T13:12:07.145Z,4192
2017-09-24T13:13:16.024Z,4192
2017-09-24T13:14:24.575Z,3916
2017-09-24T13:15:33.123Z,3916
2017-09-24T13:16:42.345Z,3880
2017-09-24T13:17:51.536Z,4008
2017-09-24T13:19:00.409Z,4160
2017-09-24T13:20:08.955Z,4408
2017-09-24T13:21:17.502Z,4724
2017-09-24T13:22:26.438Z,4872
2017-09-24T13:23:34.988Z,5092
2017-09-24T13:24:44.179Z,5308
2017-09-24T13:25:52.726Z,5608
2017-09-24T13:27:01.925Z,5848
2017-09-24T13:28:10.473Z,6048
2017-09-24T13:29:19.017Z,6072
2017-09-24T13:30:27.568Z,6004
2017-09-24T13:31:36.447Z,5780
2017-09-24T13:32:44.990Z,5740
2017-09-24T13:33:53.538Z,5168
2017-09-24T13:35:02.085Z,4416
2017-09-24T13:36:10.634Z,4016
2017-09-24T13:37:19.184Z,3828
2017-09-24T13:38:28.054Z,3716
2017-09-24T13:39:36.924Z,3676
2017-09-24T13:40:45.731Z,3732
2017-09-24T13:41:54.604Z,4032
2017-09-24T13:43:04.088Z,4044
2017-09-24T13:44:12.776Z,3904
2017-09-24T13:45:21.322Z,3972
2017-09-24T13:46:30.193Z,4272
2017-09-24T13:47:38.866Z,4328
2017-09-24T13:48:47.417Z,4328
2017-09-24T13:49:55.962Z,4308
2017-09-24T13:51:04.508Z,4256
2017-09-24T13:52:13.385Z,4176
2017-09-24T13:53:21.931Z,3948
2017-09-24T13:54:30.477Z,3920
2017-09-24T13:55:39.023Z,3984
2017-09-24T13:56:47.896Z,4248
2017-09-24T13:57:56.440Z,4400
2017-09-24T13:59:05.312Z,4528
2017-09-24T14:00:13.857Z,4624
2017-09-24T14:01:22.402Z,4816
2017-09-24T14:02:31.273Z,4960
2017-09-24T14:03:40.478Z,5008
2017-09-24T14:04:49.334Z,5032
2017-09-24T14:05:58.209Z,5080
2017-09-24T14:07:07.081Z,5108
2017-09-24T14:08:15.631Z,5000
2017-09-24T14:09:24.502Z,4620
2017-09-24T14:10:33.372Z,4432
2017-09-24T14:11:42.242Z,4152
2017-09-24T14:12:50.787Z,3896
2017-09-24T14:13:59.335Z,3868
2017-09-24T14:15:08.204Z,3868
2017-09-24T14:16:16.750Z,3908
2017-09-24T14:17:25.300Z,4004
2017-09-24T14:18:34.497Z,4132
2017-09-24T14:19:43.369Z,4372
2017-09-24T14:20:52.240Z,4752
2017-09-24T14:22:01.431Z,4968
2017-09-24T14:23:10.632Z,5276
2017-09-24T14:24:19.183Z,5440
2017-09-24T14:25:27.729Z,5260
2017-09-24T14:26:36.275Z,4824
2017-09-24T14:27:45.478Z,4496
2017-09-24T14:28:54.025Z,4340
2017-09-24T14:30:02.905Z,4168
2017-09-24T14:31:11.453Z,4140
2017-09-24T14:32:20.320Z,4188
2017-09-24T14:33:29.517Z,4308
2017-09-24T14:34:38.391Z,4468
2017-09-24T14:35:46.942Z,4648
2017-09-24T14:36:55.493Z,4660
2017-09-24T14:38:04.366Z,4500
2017-09-24T14:39:12.911Z,4328
2017-09-24T14:40:21.790Z,4124
2017-09-24T14:41:30.335Z,3940
2017-09-24T14:42:38.882Z,3844
2017-09-24T14:43:47.450Z,3732
2017-09-24T14:44:55.999Z,3740
2017-09-24T14:46:04.544Z,3736
2017-09-24T14:47:13.092Z,3884
2017-09-24T14:48:21.968Z,3844
2017-09-24T14:49:30.515Z,3804
2017-09-24T14:50:39.383Z,3772
2017-09-24T14:51:48.252Z,3724
2017-09-24T14:52:56.801Z,3692
2017-09-24T14:54:05.998Z,3660
2017-09-24T14:55:14.544Z,3628
2017-09-24T14:56:23.094Z,3612
2017-09-24T14:57:31.642Z,3596
2017-09-24T14:58:40.190Z,3592
2017-09-24T14:59:49.060Z,3576
2017-09-24T15:00:57.926Z,3544
2017-09-24T15:02:06.476Z,3508
2017-09-24T15:03:15.026Z,3472
2017-09-24T15:04:23.577Z,3436
2017-09-24T15:05:32.126Z,3404
2017-09-24T15:06:40.672Z,3380
2017-09-24T15:07:49.218Z,3344
2017-09-24T15:08:58.488Z,3312
2017-09-24T15:10:07.035Z,3292
2017-09-24T15:11:16.356Z,3264
2017-09-24T15:12:25.228Z,3248
2017-09-24T15:13:33.777Z,3224
2017-09-24T15:14:42.328Z,3200
2017-09-24T15:15:50.872Z,3184
2017-09-24T15:16:59.745Z,3152
2017-09-24T15:18:08.291Z,3124
2017-09-24T15:19:17.309Z,3092
2017-09-24T15:20:26.180Z,3084
2017-09-24T15:21:35.047Z,3080
2017-09-24T15:22:43.914Z,3068
2017-09-24T15:23:52.786Z,3060
2017-09-24T15:25:01.664Z,3056
2017-09-24T15:26:10.536Z,3032
2017-09-24T15:27:19.411Z,3012
2017-09-24T15:28:28.281Z,2996
2017-09-24T15:29:37.152Z,2972
2017-09-24T15:30:45.700Z,2936
2017-09-24T15:31:54.886Z,2900
2017-09-24T15:33:03.754Z,2864
2017-09-24T15:34:12.301Z,2828
2017-09-24T15:35:21.169Z,2816
2017-09-24T15:36:30.033Z,2800
2017-09-24T15:37:38.583Z,2792
2017-09-24T15:38:47.451Z,2788
2017-09-24T15:39:56.325Z,2784
2017-09-24T15:41:04.875Z,2772
2017-09-24T15:42:13.744Z,2756
2017-09-24T15:43:22.613Z,2740
2017-09-24T15:44:31.497Z,2724
2017-09-24T15:45:40.046Z,2704
2017-09-24T15:46:48.917Z,2684
2017-09-24T15:47:57.788Z,2664
2017-09-24T15:49:06.335Z,2644